Time;durP1;ratioP1;P1;durP2;ratioP2;P2;SDS_P1;SDS_P2;PMS_P1;PMS_P2;Temp;Humidity;BMP_temperature;BMP_pressure;BME280_temperature;BME280_humidity;BME280_pressure;Samples;Min_cycle;Max_cycle;Signal;HPM_P1;HPM_P2
2021/12/01 00:01:29;;;;;;;0.30;0.30;;;3.40;99.90;;;;;;5128268;27;20536;-57
2021/12/01 00:04:09;;;;;;;0.40;0.40;;;3.40;99.90;;;;;;5149199;27;20534;-57
2021/12/01 00:06:48;;;;;;;0.40;0.40;;;3.40;99.90;;;;;;5148481;27;20546;-57
2021/12/01 00:09:28;;;;;;;0.40;0.40;;;3.50;99.90;;;;;;5148596;27;21063;-57
2021/12/01 00:12:09;;;;;;;0.60;0.60;;;3.50;99.90;;;;;;5148704;27;20547;-57
2021/12/01 00:14:48;;;;;;;0.47;0.47;;;3.50;99.90;;;;;;5087504;28;20547;-57
2021/12/01 00:17:28;;;;;;;0.50;0.50;;;3.40;99.90;;;;;;5149047;27;20535;-58
2021/12/01 00:20:11;;;;;;;0.47;0.47;;;3.40;99.90;;;;;;5127640;27;20544;-57
2021/12/01 00:22:51;;;;;;;0.40;0.40;;;3.40;99.90;;;;;;5149315;27;20543;-57
2021/12/01 00:25:35;;;;;;;0.50;0.50;;;3.50;99.90;;;;;;5148910;27;21055;-57
2021/12/01 00:28:15;;;;;;;0.50;0.50;;;3.40;99.90;;;;;;5128180;27;20539;-56
2021/12/01 00:30:55;;;;;;;0.47;0.40;;;3.40;99.90;;;;;;5108003;27;20639;-58
2021/12/01 00:33:35;;;;;;;0.60;0.60;;;3.40;99.90;;;;;;5107707;27;20549;-57
2021/12/01 00:36:15;;;;;;;0.63;0.45;;;3.40;99.90;;;;;;5087561;28;20547;-57
2021/12/01 00:38:54;;;;;;;0.50;0.50;;;3.40;99.90;;;;;;5086886;28;20535;-57
2021/12/01 00:41:34;;;;;;;0.47;0.47;;;3.40;99.90;;;;;;5119430;27;20553;-57
2021/12/01 00:44:14;;;;;;;0.40;0.40;;;3.40;99.90;;;;;;5121753;27;20547;-57
2021/12/01 00:46:56;;;;;;;0.47;0.47;;;3.40;99.90;;;;;;5111053;27;20545;-57
2021/12/01 00:49:36;;;;;;;0.40;0.40;;;3.40;99.90;;;;;;5149556;27;20534;-57
2021/12/01 00:52:15;;;;;;;0.63;0.30;;;3.40;99.90;;;;;;5086763;28;20671;-57
2021/12/01 00:54:55;;;;;;;0.90;0.70;;;3.50;99.90;;;;;;5149078;27;20538;-58
2021/12/01 00:57:35;;;;;;;0.40;0.40;;;3.40;99.90;;;;;;5124784;27;20556;-57
2021/12/01 01:00:15;;;;;;;0.68;0.52;;;3.40;99.90;;;;;;5149993;27;21015;-57
2021/12/01 01:02:56;;;;;;;0.35;0.35;;;3.40;99.90;;;;;;5119827;27;20552;-58
2021/12/01 01:05:36;;;;;;;0.50;0.50;;;3.50;99.90;;;;;;5124903;27;20728;-57
2021/12/01 01:08:17;;;;;;;0.40;0.40;;;3.50;99.90;;;;;;5126604;27;21020;-58
2021/12/01 01:16:22;;;;;;;0.55;0.30;;;3.40;99.90;;;;;;5106631;27;20538;-57
2021/12/01 01:17:09;;;;;;;0.30;0.30;;;3.40;99.90;;;;;;5128548;27;21096;-58
2021/12/01 01:19:48;;;;;;;0.55;0.47;;;3.40;99.90;;;;;;5128127;27;20540;-57
2021/12/01 01:22:27;;;;;;;0.40;0.40;;;3.40;99.90;;;;;;5087255;28;20672;-57
2021/12/01 01:25:10;;;;;;;0.43;0.40;;;3.40;99.90;;;;;;5128085;27;20533;-57
2021/12/01 01:27:49;;;;;;;0.52;0.40;;;3.40;99.90;;;;;;5128545;27;21064;-57
2021/12/01 01:30:29;;;;;;;0.32;0.32;;;3.30;99.90;;;;;;5108048;27;20679;-57
2021/12/01 01:33:08;;;;;;;0.38;0.38;;;3.30;99.90;;;;;;5149082;27;20558;-57
2021/12/01 01:35:49;;;;;;;0.30;0.30;;;3.30;99.90;;;;;;5128362;27;20539;-57
2021/12/01 01:38:29;;;;;;;0.30;0.30;;;3.30;99.90;;;;;;5087214;28;20531;-58
2021/12/01 01:41:11;;;;;;;0.70;0.30;;;3.30;99.90;;;;;;5105570;27;21070;-57
2021/12/01 01:43:52;;;;;;;0.47;0.30;;;3.20;99.90;;;;;;5099025;27;21093;-58
2021/12/01 01:46:34;;;;;;;0.20;0.20;;;3.20;99.90;;;;;;5107357;27;20899;-57
2021/12/01 01:49:18;;;;;;;0.30;0.30;;;3.20;99.90;;;;;;5154873;27;20538;-57
2021/12/01 01:51:57;;;;;;;0.20;0.20;;;3.20;99.90;;;;;;5148461;27;20546;-57
2021/12/01 01:54:37;;;;;;;0.30;0.30;;;3.20;99.90;;;;;;5128002;27;20540;-57
2021/12/01 01:57:16;;;;;;;0.15;0.15;;;3.20;99.90;;;;;;5106264;27;20533;-58
2021/12/01 01:59:56;;;;;;;0.20;0.20;;;3.20;99.90;;;;;;5128142;27;20536;-57
2021/12/01 02:02:36;;;;;;;0.10;0.10;;;3.20;99.90;;;;;;5134267;27;21111;-57
2021/12/01 02:05:16;;;;;;;1.13;0.20;;;3.20;99.90;;;;;;5093279;27;20579;-58
2021/12/01 02:07:57;;;;;;;0.20;0.20;;;3.20;99.90;;;;;;5158766;27;20537;-57
2021/12/01 02:10:36;;;;;;;0.10;0.10;;;3.20;99.90;;;;;;5107653;27;20599;-57
2021/12/01 02:13:16;;;;;;;0.30;0.15;;;3.20;99.90;;;;;;5128488;27;20548;-57
2021/12/01 02:15:56;;;;;;;0.00;0.00;;;3.30;99.90;;;;;;5148367;27;20685;-57
2021/12/01 02:18:37;;;;;;;0.10;0.10;;;3.30;99.90;;;;;;5156421;27;21084;-57
2021/12/01 02:21:24;;;;;;;0.00;0.00;;;3.30;99.90;;;;;;5148723;27;20539;-57
2021/12/01 02:24:07;;;;;;;0.00;0.00;;;3.30;99.90;;;;;;5087231;28;20532;-57
2021/12/01 02:26:49;;;;;;;0.00;0.00;;;3.30;99.90;;;;;;5128889;27;20544;-56
2021/12/01 02:29:29;;;;;;;0.00;0.00;;;3.30;99.90;;;;;;5128160;27;20532;-57
2021/12/01 02:32:09;;;;;;;0.25;0.00;;;3.40;99.90;;;;;;5121240;27;20566;-57
2021/12/01 02:34:48;;;;;;;0.10;0.10;;;3.30;99.90;;;;;;5144476;27;20558;-57
2021/12/01 02:37:28;;;;;;;0.00;0.00;;;3.30;99.90;;;;;;5155137;27;20534;-58
2021/12/01 02:40:10;;;;;;;0.03;0.03;;;3.30;99.90;;;;;;5114882;27;21310;-58
2021/12/01 02:42:49;;;;;;;0.08;0.08;;;3.40;99.90;;;;;;5134245;27;20587;-57
2021/12/01 02:45:29;;;;;;;0.10;0.10;;;3.40;99.90;;;;;;5105205;27;20810;-58
2021/12/01 02:48:11;;;;;;;0.08;0.08;;;3.40;99.90;;;;;;5148320;27;20539;-58
2021/12/01 02:50:52;;;;;;;0.22;0.10;;;3.40;99.90;;;;;;5149878;27;20546;-57
2021/12/01 02:53:32;;;;;;;0.00;0.00;;;3.40;99.90;;;;;;5127710;27;20556;-57
2021/12/01 02:56:12;;;;;;;0.60;0.10;;;3.40;99.90;;;;;;5127834;27;20540;-57
2021/12/01 02:58:52;;;;;;;0.00;0.00;;;3.40;99.90;;;;;;5103843;27;20554;-57
2021/12/01 03:01:32;;;;;;;0.00;0.00;;;3.40;99.90;;;;;;5107121;27;20546;-57
2021/12/01 03:04:13;;;;;;;0.00;0.00;;;3.40;99.90;;;;;;5126890;27;20957;-57
2021/12/01 03:06:54;;;;;;;0.20;0.10;;;3.40;99.90;;;;;;5127627;27;20540;-57
2021/12/01 03:09:34;;;;;;;0.17;0.10;;;3.40;99.90;;;;;;5128291;27;21061;-57
2021/12/01 03:12:14;;;;;;;0.10;0.10;;;3.40;99.90;;;;;;5101286;27;20694;-57
2021/12/01 03:14:54;;;;;;;0.10;0.10;;;3.40;99.90;;;;;;5125598;27;20540;-58
2021/12/01 03:17:34;;;;;;;0.00;0.00;;;3.40;99.90;;;;;;5120594;27;20536;-58
2021/12/01 03:20:15;;;;;;;0.10;0.10;;;3.40;99.90;;;;;;5154372;27;20550;-58
2021/12/01 03:22:55;;;;;;;0.20;0.20;;;3.40;99.90;;;;;;5148558;27;20546;-57
2021/12/01 03:25:35;;;;;;;0.30;0.10;;;3.40;99.90;;;;;;5128199;27;20536;-57
2021/12/01 03:28:16;;;;;;;0.10;0.10;;;3.40;99.90;;;;;;5148983;27;20786;-57
2021/12/01 03:30:56;;;;;;;0.40;0.10;;;3.40;99.90;;;;;;5149281;27;20538;-57
2021/12/01 03:33:36;;;;;;;0.20;0.20;;;3.40;99.90;;;;;;5108069;27;20565;-57
2021/12/01 03:36:16;;;;;;;0.10;0.10;;;3.40;99.90;;;;;;5087800;28;20543;-57
2021/12/01 03:38:55;;;;;;;0.10;0.10;;;3.40;99.90;;;;;;5107609;27;20545;-58
2021/12/01 03:41:35;;;;;;;0.38;0.10;;;3.40;99.90;;;;;;5104235;27;21070;-57
2021/12/01 03:44:15;;;;;;;0.00;0.00;;;3.40;99.90;;;;;;5107330;27;20541;-57
2021/12/01 03:46:55;;;;;;;0.10;0.10;;;3.40;99.90;;;;;;5112345;27;20546;-58
2021/12/01 03:49:35;;;;;;;0.20;0.20;;;3.40;99.90;;;;;;5128299;27;20540;-58
2021/12/01 03:52:16;;;;;;;0.45;0.22;;;3.40;99.90;;;;;;5154307;27;20552;-58
2021/12/01 03:54:56;;;;;;;0.20;0.10;;;3.40;99.90;;;;;;5128690;27;20528;-58
2021/12/01 03:57:36;;;;;;;0.38;0.15;;;3.40;99.90;;;;;;5107929;27;20654;-57
2021/12/01 04:00:17;;;;;;;0.10;0.10;;;3.40;99.90;;;;;;5148185;27;20655;-58
2021/12/01 04:02:57;;;;;;;0.63;0.20;;;3.40;99.90;;;;;;5148066;27;20546;-58
2021/12/01 04:05:37;;;;;;;0.10;0.10;;;3.40;99.90;;;;;;5100926;27;20558;-56
2021/12/01 04:08:17;;;;;;;0.20;0.20;;;3.40;99.90;;;;;;5147359;27;20542;-57
2021/12/01 04:10:57;;;;;;;0.20;0.20;;;3.40;99.90;;;;;;5101480;27;21055;-58
2021/12/01 04:13:36;;;;;;;0.10;0.10;;;3.40;99.90;;;;;;5162856;27;21065;-57
2021/12/01 04:16:16;;;;;;;0.15;0.15;;;3.40;99.90;;;;;;5118513;27;20544;-58
2021/12/01 04:18:56;;;;;;;0.20;0.20;;;3.40;99.90;;;;;;5115135;27;20541;-57
2021/12/01 04:21:36;;;;;;;0.30;0.30;;;3.40;99.90;;;;;;5107180;27;20541;-58
2021/12/01 04:24:16;;;;;;;0.65;0.50;;;3.40;99.90;;;;;;5107247;27;20537;-58
2021/12/01 04:26:56;;;;;;;0.45;0.32;;;3.50;99.90;;;;;;5127865;27;20539;-58
2021/12/01 04:29:35;;;;;;;0.30;0.30;;;3.40;99.90;;;;;;5107632;27;20541;-58
2021/12/01 04:32:15;;;;;;;0.30;0.30;;;3.40;99.90;;;;;;5148413;27;20558;-57
2021/12/01 04:34:57;;;;;;;0.35;0.35;;;3.40;99.90;;;;;;5087373;28;20597;-57
2021/12/01 04:37:36;;;;;;;0.40;0.40;;;3.40;99.90;;;;;;5128086;27;20544;-57
2021/12/01 04:40:17;;;;;;;0.20;0.20;;;3.40;99.90;;;;;;5149522;27;20530;-57
2021/12/01 04:42:56;;;;;;;0.20;0.20;;;3.40;99.90;;;;;;5152707;27;20544;-57
2021/12/01 04:45:41;;;;;;;0.47;0.35;;;3.40;99.90;;;;;;5148730;27;20542;-58
2021/12/01 04:48:20;;;;;;;0.40;0.40;;;3.40;99.90;;;;;;5149405;27;20530;-58
2021/12/01 04:51:01;;;;;;;0.50;0.50;;;3.40;99.90;;;;;;5086172;28;20547;-57
2021/12/01 04:53:40;;;;;;;0.40;0.40;;;3.50;99.90;;;;;;5127998;27;20552;-58
2021/12/01 04:56:20;;;;;;;0.20;0.20;;;3.50;99.90;;;;;;5146873;27;20526;-58
2021/12/01 04:59:00;;;;;;;0.30;0.30;;;3.50;99.90;;;;;;5117266;27;20548;-57
2021/12/01 05:01:41;;;;;;;0.20;0.20;;;3.50;99.90;;;;;;5147375;27;21225;-57
2021/12/01 05:04:19;;;;;;;0.50;0.50;;;3.50;99.90;;;;;;5118656;27;20544;-57
2021/12/01 05:07:00;;;;;;;1.17;0.13;;;3.50;99.90;;;;;;5086339;28;20547;-57
2021/12/01 05:09:39;;;;;;;0.32;0.20;;;3.50;99.90;;;;;;5102166;27;20580;-56
2021/12/01 05:12:19;;;;;;;1.35;0.57;;;3.50;99.90;;;;;;5132797;27;20562;-56
2021/12/01 05:14:59;;;;;;;0.55;0.55;;;3.50;99.90;;;;;;5156279;27;21202;-57
2021/12/01 05:17:39;;;;;;;0.50;0.50;;;3.50;99.90;;;;;;5106160;27;20537;-56
2021/12/01 05:20:19;;;;;;;0.70;0.70;;;3.50;99.90;;;;;;5147507;27;20539;-56
2021/12/01 05:22:58;;;;;;;0.82;0.70;;;3.50;99.90;;;;;;5126921;27;20544;-56
2021/12/01 05:25:38;;;;;;;0.50;0.50;;;3.50;99.90;;;;;;5106000;27;20549;-55
2021/12/01 05:28:18;;;;;;;0.80;0.80;;;3.60;99.90;;;;;;5085590;28;20435;-55
2021/12/01 05:30:58;;;;;;;1.80;1.42;;;3.60;99.90;;;;;;5147608;27;20583;-55
2021/12/01 05:33:39;;;;;;;1.60;1.25;;;3.60;99.90;;;;;;5146975;27;20611;-55
2021/12/01 05:36:19;;;;;;;1.85;0.77;;;3.60;99.90;;;;;;5147249;27;21090;-56
2021/12/01 05:38:59;;;;;;;0.55;0.50;;;3.60;99.90;;;;;;5086041;27;20593;-56
2021/12/01 05:41:39;;;;;;;0.50;0.50;;;3.50;99.90;;;;;;5106395;27;20541;-56
2021/12/01 05:44:18;;;;;;;1.23;0.90;;;3.50;99.90;;;;;;5127303;27;20548;-56
2021/12/01 05:46:58;;;;;;;0.85;0.50;;;3.50;99.90;;;;;;5127351;27;20528;-56
2021/12/01 05:49:42;;;;;;;0.30;0.30;;;3.50;99.90;;;;;;5086363;28;21064;-55
2021/12/01 05:52:21;;;;;;;0.55;0.40;;;3.60;99.90;;;;;;5154247;27;20962;-56
2021/12/01 05:55:01;;;;;;;0.45;0.45;;;3.60;99.90;;;;;;5062525;28;20593;-55
2021/12/01 05:57:41;;;;;;;0.17;0.17;;;3.60;99.90;;;;;;5147947;27;20539;-56
2021/12/01 06:00:21;;;;;;;0.30;0.30;;;3.60;99.90;;;;;;5127148;27;20532;-55
2021/12/01 06:03:00;;;;;;;0.80;0.43;;;3.70;99.90;;;;;;5086863;28;20551;-55
2021/12/01 06:05:40;;;;;;;0.52;0.50;;;3.70;99.90;;;;;;5147999;27;20864;-55
2021/12/01 06:08:20;;;;;;;0.40;0.40;;;3.70;99.90;;;;;;5127852;27;20827;-55
2021/12/01 06:11:00;;;;;;;0.52;0.52;;;3.70;99.90;;;;;;5086037;28;20586;-55
2021/12/01 06:13:40;;;;;;;0.65;0.45;;;3.80;99.90;;;;;;5085343;27;20551;-55
2021/12/01 06:16:22;;;;;;;0.88;0.80;;;3.80;99.90;;;;;;5168781;27;20537;-56
2021/12/01 06:19:01;;;;;;;1.50;1.40;;;3.70;99.90;;;;;;5148689;27;20530;-55
2021/12/01 06:21:41;;;;;;;2.30;2.15;;;3.80;99.90;;;;;;5126112;27;20887;-56
2021/12/01 06:24:21;;;;;;;0.60;0.60;;;3.80;99.90;;;;;;5107123;27;20646;-55
2021/12/01 06:27:00;;;;;;;1.38;1.27;;;3.80;99.90;;;;;;5106256;27;20912;-55
2021/12/01 06:29:40;;;;;;;0.77;0.77;;;3.80;99.90;;;;;;5085881;28;20547;-55
2021/12/01 06:32:20;;;;;;;0.85;0.70;;;3.80;99.90;;;;;;5100025;27;20555;-56
2021/12/01 06:35:00;;;;;;;1.20;1.20;;;3.80;99.90;;;;;;5126976;27;20540;-55
2021/12/01 06:37:40;;;;;;;1.75;1.38;;;3.80;99.90;;;;;;5106173;27;20546;-55
2021/12/01 06:40:20;;;;;;;1.88;0.95;;;3.80;99.90;;;;;;5127149;27;20954;-55
2021/12/01 06:43:00;;;;;;;0.63;0.57;;;3.80;99.90;;;;;;5152011;27;21082;-55
2021/12/01 06:45:39;;;;;;;0.90;0.90;;;3.80;99.90;;;;;;5147676;27;20526;-55
2021/12/01 06:48:19;;;;;;;0.70;0.70;;;3.80;99.90;;;;;;5147592;27;20538;-55
2021/12/01 06:50:59;;;;;;;1.10;1.00;;;3.90;99.90;;;;;;5147761;27;20523;-55
2021/12/01 06:53:39;;;;;;;0.95;0.95;;;3.90;99.90;;;;;;5106318;27;20545;-56
2021/12/01 06:56:19;;;;;;;0.77;0.77;;;3.90;99.90;;;;;;5147334;27;21086;-55
2021/12/01 06:58:58;;;;;;;1.55;0.90;;;3.90;99.90;;;;;;5126814;27;20552;-55
2021/12/01 07:01:38;;;;;;;1.00;1.00;;;3.90;99.90;;;;;;5106496;27;20599;-55
2021/12/01 07:04:18;;;;;;;1.45;1.35;;;3.90;99.90;;;;;;5106161;27;20534;-55
2021/12/01 07:06:59;;;;;;;0.90;0.90;;;3.90;99.90;;;;;;5147448;27;20539;-55
2021/12/01 07:09:38;;;;;;;0.90;0.90;;;3.90;99.90;;;;;;5126946;27;20539;-55
2021/12/01 07:12:18;;;;;;;1.10;1.00;;;3.90;99.90;;;;;;5146591;27;20559;-56
2021/12/01 07:14:57;;;;;;;1.20;1.10;;;3.90;99.90;;;;;;5125626;27;20556;-55
2021/12/01 07:17:37;;;;;;;1.00;1.00;;;3.90;99.90;;;;;;5147516;27;20591;-54
2021/12/01 07:20:17;;;;;;;0.85;0.85;;;3.90;99.90;;;;;;5106801;27;20537;-55
2021/12/01 07:22:57;;;;;;;1.00;1.00;;;4.00;99.90;;;;;;5106387;27;21067;-55
2021/12/01 07:25:37;;;;;;;1.38;1.27;;;4.00;99.90;;;;;;5105934;27;20554;-55
2021/12/01 07:28:16;;;;;;;1.42;1.10;;;4.00;99.90;;;;;;5147694;27;20538;-54
2021/12/01 07:30:56;;;;;;;1.08;1.00;;;4.00;99.90;;;;;;5147491;27;20535;-55
2021/12/01 07:33:36;;;;;;;1.40;1.30;;;4.00;99.90;;;;;;5126507;27;20559;-55
2021/12/01 07:36:17;;;;;;;1.30;1.20;;;4.00;99.90;;;;;;5106336;27;21058;-56
2021/12/01 07:38:59;;;;;;;1.00;1.00;;;4.00;99.90;;;;;;5086624;27;20672;-55
2021/12/01 07:41:39;;;;;;;1.35;1.25;;;4.00;99.90;;;;;;5086317;27;20543;-55
2021/12/01 07:44:19;;;;;;;1.52;1.42;;;4.00;99.90;;;;;;5163635;27;20537;-55
2021/12/01 07:46:58;;;;;;;1.17;1.17;;;4.00;99.90;;;;;;5086727;28;20544;-55
2021/12/01 07:49:39;;;;;;;1.48;1.38;;;4.00;99.90;;;;;;5106712;27;20557;-55
2021/12/01 07:52:18;;;;;;;1.35;1.25;;;4.00;99.90;;;;;;5126949;27;21130;-55
2021/12/01 07:54:58;;;;;;;2.92;1.50;;;4.00;99.90;;;;;;5086119;28;20539;-55
2021/12/01 07:57:38;;;;;;;2.03;1.08;;;4.10;99.90;;;;;;5086518;28;20544;-55
2021/12/01 08:00:18;;;;;;;1.17;1.13;;;4.10;99.90;;;;;;5086237;28;20547;-55
2021/12/01 08:02:57;;;;;;;1.17;1.10;;;4.10;99.90;;;;;;5086070;28;20547;-55
2021/12/01 08:05:37;;;;;;;1.92;1.50;;;4.10;99.90;;;;;;5106620;27;20538;-57
2021/12/01 08:08:17;;;;;;;1.17;1.17;;;4.10;99.90;;;;;;5106423;27;21114;-56
2021/12/01 08:10:57;;;;;;;1.30;1.30;;;4.10;99.90;;;;;;5126582;27;20544;-55
2021/12/01 08:13:37;;;;;;;1.25;1.02;;;4.10;99.90;;;;;;5067916;28;21032;-55
2021/12/01 08:16:17;;;;;;;1.58;1.48;;;4.10;99.90;;;;;;5085882;27;20543;-55
2021/12/01 08:18:56;;;;;;;0.90;0.90;;;4.10;99.90;;;;;;5106492;27;20545;-55
2021/12/01 08:21:36;;;;;;;1.02;1.02;;;4.10;99.90;;;;;;5106212;27;21071;-56
2021/12/01 08:24:16;;;;;;;1.20;1.10;;;4.20;99.90;;;;;;5147465;27;20538;-55
2021/12/01 08:26:56;;;;;;;4.25;1.10;;;4.20;99.90;;;;;;5126776;27;20589;-55
2021/12/01 08:29:36;;;;;;;1.20;1.15;;;4.30;99.90;;;;;;5094404;22;20600;-56
2021/12/01 08:32:16;;;;;;;1.10;1.00;;;4.30;99.90;;;;;;5144716;27;20669;-56
2021/12/01 08:34:55;;;;;;;1.30;1.30;;;4.30;99.90;;;;;;5083451;28;21129;-56
2021/12/01 08:37:35;;;;;;;1.13;1.00;;;4.30;99.90;;;;;;5125134;27;20548;-56
2021/12/01 08:40:16;;;;;;;0.93;0.90;;;4.30;99.90;;;;;;5084615;28;20676;-56
2021/12/01 08:42:55;;;;;;;0.90;0.90;;;4.30;99.90;;;;;;5084225;27;20547;-56
2021/12/01 08:45:35;;;;;;;1.33;1.20;;;4.30;99.90;;;;;;5150900;27;20665;-56
2021/12/01 08:48:15;;;;;;;1.40;0.90;;;4.30;99.90;;;;;;5145810;27;20681;-56
2021/12/01 08:50:56;;;;;;;1.15;1.08;;;4.30;99.90;;;;;;5149510;27;20543;-56
2021/12/01 08:53:39;;;;;;;1.60;1.10;;;4.40;99.90;;;;;;5084247;28;20551;-56
2021/12/01 08:56:19;;;;;;;1.35;1.10;;;4.40;99.90;;;;;;5104508;27;20670;-56
2021/12/01 08:58:59;;;;;;;1.65;1.55;;;4.50;99.90;;;;;;5104935;27;20546;-56
2021/12/01 09:01:38;;;;;;;1.48;1.38;;;4.50;99.90;;;;;;5084767;28;20572;-56
2021/12/01 09:04:19;;;;;;;1.30;1.30;;;4.60;99.90;;;;;;5125276;27;20860;-57
2021/12/01 09:06:58;;;;;;;2.37;1.27;;;4.70;99.90;;;;;;5083882;28;20816;-56
2021/12/01 09:09:38;;;;;;;1.58;1.45;;;4.70;99.90;;;;;;5105096;27;20557;-56
2021/12/01 09:12:19;;;;;;;1.35;1.27;;;4.70;99.90;;;;;;5145007;27;20543;-56
2021/12/01 09:14:58;;;;;;;1.48;1.38;;;4.70;99.90;;;;;;5122835;27;21080;-56
2021/12/01 09:17:37;;;;;;;1.50;1.40;;;4.70;99.90;;;;;;5146200;27;20535;-56
2021/12/01 09:20:18;;;;;;;1.30;1.20;;;4.70;99.90;;;;;;5084941;28;20543;-56
2021/12/01 09:22:57;;;;;;;1.10;1.10;;;4.80;99.90;;;;;;5105066;27;20534;-56
2021/12/01 09:25:37;;;;;;;1.20;1.10;;;4.90;99.90;;;;;;5127770;22;20603;-56
2021/12/01 09:28:19;;;;;;;0.85;0.85;;;5.10;99.90;;;;;;5146242;27;20542;-56
2021/12/01 09:30:59;;;;;;;1.23;1.13;;;5.20;99.90;;;;;;5105598;27;20550;-55
2021/12/01 09:33:38;;;;;;;1.40;1.30;;;5.10;99.90;;;;;;5145416;27;21122;-56
2021/12/01 09:36:18;;;;;;;1.35;1.27;;;5.20;99.90;;;;;;5145676;27;20542;-56
2021/12/01 09:38:58;;;;;;;1.17;1.10;;;5.20;99.90;;;;;;5124570;27;20532;-56
2021/12/01 09:41:38;;;;;;;1.05;0.93;;;5.30;99.90;;;;;;5125852;27;20536;-56
2021/12/01 09:44:17;;;;;;;1.27;1.27;;;5.30;99.90;;;;;;5124384;27;20555;-56
2021/12/01 09:46:57;;;;;;;2.25;1.08;;;5.20;99.90;;;;;;5125954;27;21052;-56
2021/12/01 09:49:37;;;;;;;2.17;0.95;;;5.20;99.90;;;;;;5104911;27;20541;-55
2021/12/01 09:52:18;;;;;;;0.93;0.93;;;5.10;99.90;;;;;;5145868;27;20534;-57
2021/12/01 09:54:57;;;;;;;2.95;0.90;;;5.10;99.90;;;;;;5145465;27;20550;-56
2021/12/01 09:57:36;;;;;;;2.05;1.10;;;5.20;99.90;;;;;;5125638;27;20548;-56
2021/12/01 10:00:17;;;;;;;5.75;0.80;;;5.50;99.90;;;;;;5146281;27;21062;-56
2021/12/01 10:02:56;;;;;;;1.90;1.05;;;6.00;99.90;;;;;;5105460;27;20533;-55
2021/12/01 10:06:00;;;;;;;1.60;0.70;;;6.40;99.90;;;;;;5104169;27;20557;-55
2021/12/01 10:08:42;;;;;;;0.80;0.80;;;6.70;99.90;;;;;;5146564;27;20534;-56
2021/12/01 10:11:23;;;;;;;0.90;0.90;;;6.90;99.90;;;;;;5145756;27;20547;-57
2021/12/01 10:14:04;;;;;;;0.77;0.77;;;6.80;99.90;;;;;;5102265;27;20550;-56
2021/12/01 10:16:46;;;;;;;0.98;0.85;;;6.60;99.90;;;;;;5125874;27;21072;-55
2021/12/01 10:19:28;;;;;;;0.77;0.77;;;6.50;99.90;;;;;;5146233;27;20538;-57
2021/12/01 10:22:11;;;;;;;0.75;0.75;;;6.50;99.90;;;;;;5125447;27;20536;-56
2021/12/01 10:24:51;;;;;;;0.80;0.80;;;6.40;99.90;;;;;;5124567;27;20548;-56
2021/12/01 10:27:38;;;;;;;1.23;1.13;;;6.30;99.90;;;;;;5146212;27;20542;-56
2021/12/01 10:30:37;;;;;;;0.95;0.95;;;6.30;99.90;;;;;;5145847;27;20665;-57
2021/12/01 10:33:18;;;;;;;2.25;2.05;;;6.30;99.90;;;;;;5125601;27;21001;-56
2021/12/01 10:36:00;;;;;;;1.48;1.38;;;6.20;99.90;;;;;;5125225;27;20540;-56
2021/12/01 10:38:45;;;;;;;1.30;1.20;;;6.10;99.90;;;;;;5146194;27;20542;-56
2021/12/01 10:41:36;;;;;;;0.80;0.80;;;6.00;99.90;;;;;;5146318;27;20546;-57
2021/12/01 10:44:17;;;;;;;1.60;1.50;;;5.90;99.90;;;;;;5145307;27;20562;-57
2021/12/01 10:46:56;;;;;;;1.30;1.20;;;5.90;99.90;;;;;;5084877;28;20944;-56
2021/12/01 10:49:40;;;;;;;1.50;0.98;;;6.00;99.90;;;;;;5085035;28;20540;-56
2021/12/01 10:52:33;;;;;;;0.57;0.50;;;6.00;99.90;;;;;;5105471;27;21100;-56
2021/12/01 10:55:14;;;;;;;1.80;1.13;;;6.00;99.90;;;;;;5145532;27;20550;-56
2021/12/01 10:57:57;;;;;;;1.60;1.00;;;6.00;99.90;;;;;;5084843;28;20864;-57
2021/12/01 11:00:41;;;;;;;1.00;1.00;;;6.00;99.90;;;;;;5125666;27;20539;-56
2021/12/01 11:03:24;;;;;;;0.80;0.80;;;6.10;99.90;;;;;;5146361;27;21050;-56
2021/12/01 11:06:13;;;;;;;0.60;0.60;;;6.10;99.90;;;;;;5145453;27;20588;-57
2021/12/01 11:08:57;;;;;;;0.50;0.50;;;6.10;99.90;;;;;;5125008;27;21116;-57
2021/12/01 11:11:41;;;;;;;0.90;0.85;;;6.10;99.90;;;;;;5103688;27;20768;-55
2021/12/01 11:14:22;;;;;;;1.65;0.90;;;6.10;99.90;;;;;;5125358;22;20587;-57
2021/12/01 11:17:01;;;;;;;0.98;0.85;;;6.20;99.90;;;;;;5104284;27;20534;-58
2021/12/01 11:19:41;;;;;;;0.60;0.60;;;6.40;99.90;;;;;;5104009;27;20549;-57
2021/12/01 11:22:32;;;;;;;0.88;0.88;;;6.60;99.90;;;;;;5125121;27;20536;-57
2021/12/01 11:25:24;;;;;;;0.80;0.50;;;6.90;99.90;;;;;;5083820;28;20539;-57
2021/12/01 11:28:05;;;;;;;0.50;0.50;;;7.00;99.90;;;;;;5145887;27;20538;-57
2021/12/01 11:30:46;;;;;;;1.80;1.00;;;7.10;99.90;;;;;;5146364;27;20543;-57
2021/12/01 11:33:27;;;;;;;0.88;0.63;;;7.10;99.90;;;;;;5144322;27;20558;-57
2021/12/01 11:36:09;;;;;;;0.57;0.57;;;7.30;99.90;;;;;;5104463;27;21066;-57
2021/12/01 11:38:51;;;;;;;1.13;0.80;;;7.50;99.90;;;;;;5125246;27;20540;-57
2021/12/01 11:41:36;;;;;;;1.77;1.20;;;7.60;99.90;;;;;;5160085;27;20658;-57
2021/12/01 11:44:17;;;;;;;0.60;0.60;;;7.70;99.90;;;;;;5104170;27;20562;-57
2021/12/01 11:46:56;;;;;;;1.55;1.05;;;7.70;99.90;;;;;;5105113;27;20541;-57
2021/12/01 11:49:36;;;;;;;1.08;0.80;;;7.80;99.90;;;;;;5125126;27;20544;-57
2021/12/01 11:52:17;;;;;;;0.88;0.88;;;7.80;99.90;;;;;;5084458;27;20551;-57
2021/12/01 11:54:57;;;;;;;0.68;0.68;;;7.70;99.90;;;;;;5145505;27;21065;-56
2021/12/01 11:57:41;;;;;;;0.60;0.60;;;7.60;99.90;;;;;;5146813;27;21072;-57
2021/12/01 12:00:45;;;;;;;0.68;0.68;;;7.50;99.90;;;;;;5125501;27;20540;-57
2021/12/01 12:03:27;;;;;;;0.70;0.70;;;7.30;99.90;;;;;;5124716;27;21084;-57
2021/12/01 12:06:22;;;;;;;0.60;0.60;;;7.20;99.90;;;;;;5125082;27;20876;-57
2021/12/01 12:09:04;;;;;;;0.73;0.73;;;7.00;99.90;;;;;;5145554;27;20538;-57
2021/12/01 12:11:47;;;;;;;0.60;0.60;;;7.00;99.90;;;;;;5104588;27;20669;-57
2021/12/01 12:14:29;;;;;;;1.77;0.50;;;7.10;99.90;;;;;;5142735;27;20550;-57
2021/12/01 12:17:12;;;;;;;0.40;0.40;;;7.10;99.90;;;;;;5084909;28;21056;-57
2021/12/01 12:20:02;;;;;;;0.50;0.50;;;7.10;99.90;;;;;;5145926;27;20894;-57
2021/12/01 12:23:01;;;;;;;0.65;0.50;;;7.10;99.90;;;;;;5146401;27;20539;-57
2021/12/01 12:25:47;;;;;;;0.63;0.63;;;7.10;99.90;;;;;;5104218;27;20530;-56
2021/12/01 12:28:31;;;;;;;0.47;0.47;;;7.10;99.90;;;;;;5085157;27;20540;-57
2021/12/01 12:31:29;;;;;;;0.40;0.40;;;7.10;99.90;;;;;;5125459;27;21068;-57
2021/12/01 12:34:15;;;;;;;0.73;0.70;;;7.10;99.90;;;;;;5144197;27;20546;-57
2021/12/01 12:36:56;;;;;;;1.17;0.82;;;7.10;99.90;;;;;;5084953;27;20527;-57
2021/12/01 12:39:46;;;;;;;0.88;0.88;;;7.00;99.90;;;;;;5125620;27;20536;-57
2021/12/01 12:42:26;;;;;;;0.70;0.70;;;7.00;99.90;;;;;;5104955;27;20541;-57
2021/12/01 12:45:06;;;;;;;1.63;0.80;;;7.00;99.90;;;;;;5124823;27;20536;-57
2021/12/01 12:47:49;;;;;;;0.65;0.65;;;7.00;99.90;;;;;;5125711;27;20938;-57
2021/12/01 12:50:28;;;;;;;0.40;0.40;;;7.00;99.90;;;;;;5146122;27;20538;-57
2021/12/01 12:53:08;;;;;;;1.20;0.50;;;6.90;99.90;;;;;;5145970;27;20546;-57
2021/12/01 12:55:50;;;;;;;0.80;0.80;;;6.80;99.90;;;;;;5124521;27;20544;-57
2021/12/01 12:58:37;;;;;;;0.85;0.85;;;6.70;99.90;;;;;;5103730;27;20542;-57
2021/12/01 13:01:26;;;;;;;1.00;0.82;;;6.80;99.90;;;;;;5144739;27;20592;-57
2021/12/01 13:04:07;;;;;;;0.80;0.80;;;6.90;99.90;;;;;;5108951;27;20887;-57
2021/12/01 13:06:46;;;;;;;0.95;0.90;;;6.90;99.90;;;;;;5083139;28;20543;-57
2021/12/01 13:09:27;;;;;;;1.00;0.68;;;6.90;99.90;;;;;;5124152;27;20540;-57
2021/12/01 13:12:07;;;;;;;0.63;0.50;;;6.90;99.90;;;;;;5107772;27;20886;-57
2021/12/01 13:14:48;;;;;;;0.70;0.70;;;6.80;99.90;;;;;;5107444;27;20532;-56
2021/12/01 13:17:27;;;;;;;0.95;0.80;;;6.70;99.90;;;;;;5103517;27;20541;-57
2021/12/01 13:20:08;;;;;;;1.27;0.63;;;6.70;99.90;;;;;;5143796;27;20546;-57
2021/12/01 13:23:20;;;;;;;0.80;0.80;;;6.60;99.90;;;;;;5143947;27;21082;-57
2021/12/01 13:26:05;;;;;;;0.95;0.95;;;6.60;99.90;;;;;;5102471;27;20550;-57
2021/12/01 13:28:48;;;;;;;0.85;0.80;;;6.60;99.90;;;;;;5083180;28;20539;-57
2021/12/01 13:31:29;;;;;;;1.10;1.00;;;6.60;99.90;;;;;;5123960;27;21067;-57
2021/12/01 13:34:11;;;;;;;1.10;1.10;;;6.60;99.90;;;;;;5135740;27;20564;-57
2021/12/01 13:36:53;;;;;;;0.80;0.80;;;6.60;99.90;;;;;;5124115;27;20548;-56
2021/12/01 13:39:36;;;;;;;1.40;1.27;;;6.60;99.90;;;;;;5102576;27;20550;-57
2021/12/01 13:42:20;;;;;;;1.40;1.30;;;6.60;99.90;;;;;;5170742;22;20602;-56
2021/12/01 13:45:00;;;;;;;1.38;1.27;;;6.50;99.90;;;;;;5138777;27;20532;-56
2021/12/01 13:47:41;;;;;;;1.23;1.13;;;6.40;99.90;;;;;;5122718;27;20876;-56
2021/12/01 13:50:20;;;;;;;2.83;2.70;;;6.40;99.90;;;;;;5144392;27;20422;-55
2021/12/01 13:52:59;;;;;;;1.30;1.20;;;6.30;99.90;;;;;;5136541;27;20555;-55
2021/12/01 13:55:41;;;;;;;1.48;1.38;;;6.30;99.90;;;;;;5145125;27;20670;-55
2021/12/01 13:58:20;;;;;;;1.65;1.10;;;6.20;99.90;;;;;;5084339;28;21034;-55
2021/12/01 14:01:06;;;;;;;1.10;1.00;;;6.10;99.90;;;;;;5139848;27;20552;-56
2021/12/01 14:03:57;;;;;;;1.38;1.30;;;6.10;99.90;;;;;;5161368;27;20421;-56
2021/12/01 14:06:38;;;;;;;1.52;1.42;;;6.10;99.90;;;;;;5084129;28;20539;-56
2021/12/01 14:09:53;;;;;;;0.93;0.93;;;6.10;99.90;;;;;;5072486;27;20568;-56
2021/12/01 14:12:35;;;;;;;1.40;1.30;;;6.10;99.90;;;;;;5107457;27;20914;-56
2021/12/01 14:15:15;;;;;;;1.30;1.20;;;6.10;99.90;;;;;;5136731;27;21059;-56